Time;durP1;ratioP1;P1;durP2;ratioP2;P2;SDS_P1;SDS_P2;PMS_P1;PMS_P2;Temp;Humidity;BMP_temperature;BMP_pressure;BME280_temperature;BME280_humidity;BME280_pressure;Samples;Min_cycle;Max_cycle;Signal;HPM_P1;HPM_P2
2021/08/31 00:08:16;;;;;;;2.20;1.60;;;21.30;99.90;;;;;;20627714;28;20222;-69
2021/08/31 00:18:19;;;;;;;1.97;0.40;;;21.10;99.90;;;;;;20624810;28;20225;-70
2021/08/31 00:28:24;;;;;;;0.20;0.20;;;21.10;99.90;;;;;;20625897;28;20232;-70
2021/08/31 00:38:28;;;;;;;0.63;0.63;;;21.00;99.90;;;;;;20622773;28;20555;-69
2021/08/31 00:48:33;;;;;;;0.57;0.37;;;21.20;99.90;;;;;;20624408;28;20223;-69
2021/08/31 00:58:36;;;;;;;0.27;0.07;;;21.40;99.90;;;;;;20623710;28;20537;-72
2021/08/31 01:08:42;;;;;;;0.60;0.30;;;21.40;99.90;;;;;;20623683;28;20286;-72
2021/08/31 01:18:46;;;;;;;0.40;0.30;;;21.40;99.90;;;;;;20621870;28;20234;-69
2021/08/31 01:28:52;;;;;;;2.47;0.43;;;21.60;99.90;;;;;;20621489;28;20254;-71
2021/08/31 01:38:59;;;;;;;0.87;0.60;;;21.70;99.90;;;;;;20620613;28;20317;-69
2021/08/31 01:49:04;;;;;;;0.40;0.30;;;21.70;99.90;;;;;;20619773;28;20204;-70
2021/08/31 01:59:08;;;;;;;0.53;0.43;;;21.60;99.90;;;;;;20621588;28;20326;-68
2021/08/31 02:09:13;;;;;;;0.20;0.10;;;21.70;99.90;;;;;;20616600;28;20196;-68
2021/08/31 02:19:16;;;;;;;0.27;0.20;;;21.50;99.90;;;;;;20619341;28;20234;-67
2021/08/31 02:29:21;;;;;;;1.23;0.60;;;21.60;99.90;;;;;;20616004;28;20643;-71
2021/08/31 02:39:25;;;;;;;2.50;1.23;;;21.50;99.90;;;;;;20616512;28;21085;-71
2021/08/31 02:49:31;;;;;;;1.43;0.40;;;21.30;99.90;;;;;;20614355;28;20191;-70
2021/08/31 02:59:34;;;;;;;2.00;1.50;;;21.30;99.90;;;;;;20614711;28;20243;-70
2021/08/31 03:09:39;;;;;;;1.73;1.10;;;21.30;99.90;;;;;;20615127;28;20545;-71
2021/08/31 03:19:43;;;;;;;0.20;0.10;;;21.40;99.90;;;;;;20614961;28;20603;-70
2021/08/31 03:29:48;;;;;;;1.07;0.83;;;21.40;99.90;;;;;;20620229;28;20223;-70
2021/08/31 03:39:52;;;;;;;0.40;0.30;;;21.30;99.90;;;;;;20629450;28;20635;-71
2021/08/31 03:49:57;;;;;;;0.20;0.10;;;21.20;99.90;;;;;;20630285;28;20204;-70
2021/08/31 04:00:00;;;;;;;0.53;0.40;;;21.20;99.90;;;;;;20629541;28;20231;-73
2021/08/31 04:10:07;;;;;;;0.30;0.30;;;21.20;99.90;;;;;;20629220;28;20363;-71
2021/08/31 04:20:13;;;;;;;0.50;0.47;;;21.20;99.90;;;;;;20624899;28;20297;-72
2021/08/31 04:30:19;;;;;;;0.20;0.17;;;21.20;99.90;;;;;;20627235;28;20249;-69
2021/08/31 04:40:22;;;;;;;0.50;0.30;;;21.20;99.90;;;;;;20623663;28;20230;-70
2021/08/31 04:50:28;;;;;;;0.30;0.10;;;21.30;99.90;;;;;;20625309;28;20716;-69
2021/08/31 05:00:31;;;;;;;1.23;1.03;;;21.30;99.90;;;;;;20621762;28;20250;-69
2021/08/31 05:10:38;;;;;;;1.70;0.60;;;21.20;99.90;;;;;;20623086;28;20203;-69
2021/08/31 05:20:41;;;;;;;0.83;0.53;;;21.10;99.90;;;;;;20622636;28;20374;-70
2021/08/31 05:30:46;;;;;;;0.60;0.57;;;21.10;99.90;;;;;;20620610;28;20611;-70
2021/08/31 05:40:50;;;;;;;2.13;1.57;;;21.10;99.90;;;;;;20618413;28;20223;-71
2021/08/31 05:50:55;;;;;;;0.63;0.53;;;21.40;99.90;;;;;;20618424;28;20207;-70
2021/08/31 06:00:59;;;;;;;1.03;0.70;;;21.80;99.90;;;;;;20617189;28;20993;-69
2021/08/31 06:11:04;;;;;;;0.40;0.33;;;22.00;99.90;;;;;;20658162;28;20191;-69
2021/08/31 06:21:08;;;;;;;1.63;1.52;;;22.20;99.90;;;;;;20698524;28;20962;-68
2021/08/31 06:31:13;;;;;;;0.40;0.40;;;22.40;99.90;;;;;;20691982;28;20206;-69
2021/08/31 06:41:16;;;;;;;1.27;0.85;;;22.40;99.90;;;;;;20613408;28;20227;-70
2021/08/31 06:51:22;;;;;;;0.20;0.17;;;22.80;99.90;;;;;;20660013;28;20199;-70
2021/08/31 07:01:25;;;;;;;0.50;0.50;;;23.30;99.90;;;;;;20693444;28;20222;-70
2021/08/31 07:11:31;;;;;;;1.65;0.75;;;23.80;99.90;;;;;;20678475;28;20325;-70
2021/08/31 07:21:34;;;;;;;1.30;1.13;;;24.20;99.90;;;;;;20646071;28;20238;-69
2021/08/31 07:31:39;;;;;;;7.78;0.52;;;24.30;99.90;;;;;;20633705;28;20771;-68
2021/08/31 07:41:43;;;;;;;2.50;0.80;;;24.90;99.90;;;;;;20625050;28;20561;-67
2021/08/31 07:51:48;;;;;;;0.22;0.15;;;25.00;99.90;;;;;;20611949;28;20199;-67
2021/08/31 08:01:52;;;;;;;2.65;0.60;;;24.60;99.90;;;;;;20648508;28;20227;-68
2021/08/31 08:11:57;;;;;;;0.80;0.30;;;24.90;99.90;;;;;;20662186;28;20664;-70
2021/08/31 08:22:01;;;;;;;0.50;0.50;;;24.80;99.90;;;;;;20657866;28;20683;-68
2021/08/31 08:32:06;;;;;;;1.10;0.85;;;24.90;99.90;;;;;;20667765;28;20558;-67
2021/08/31 08:42:12;;;;;;;0.55;0.43;;;25.00;99.90;;;;;;20606610;28;20593;-68
2021/08/31 08:52:17;;;;;;;2.50;1.25;;;25.00;99.90;;;;;;20631720;28;20207;-69
2021/08/31 09:02:38;;;;;;;3.28;0.77;;;25.10;99.90;;;;;;20624062;28;20234;-69
2021/08/31 09:12:43;;;;;;;1.25;1.15;;;25.20;99.90;;;;;;20622774;28;20222;-68
2021/08/31 09:22:53;;;;;;;1.48;0.70;;;25.20;99.90;;;;;;20620574;28;20497;-69
2021/08/31 09:33:07;;;;;;;0.20;0.20;;;25.20;99.90;;;;;;20618061;28;20549;-67
2021/08/31 09:43:16;;;;;;;1.00;0.50;;;25.70;99.90;;;;;;20619459;28;20227;-69
2021/08/31 09:53:23;;;;;;;0.45;0.30;;;25.70;99.90;;;;;;20615508;28;20203;-67
2021/08/31 10:03:27;;;;;;;0.47;0.32;;;26.10;99.90;;;;;;20614789;28;20234;-70
2021/08/31 10:13:37;;;;;;;0.20;0.13;;;26.60;99.90;;;;;;20616535;28;20736;-69
2021/08/31 10:23:48;;;;;;;0.77;0.30;;;26.30;99.90;;;;;;20616221;28;20369;-66
2021/08/31 10:33:53;;;;;;;0.20;0.10;;;26.50;99.90;;;;;;20615008;28;20218;-67
2021/08/31 10:43:57;;;;;;;0.43;0.30;;;26.90;99.90;;;;;;20614042;28;20597;-68
2021/08/31 10:54:02;;;;;;;0.95;0.50;;;27.50;99.90;;;;;;20607880;28;20192;-66
2021/08/31 11:04:27;;;;;;;4.72;0.30;;;27.70;99.90;;;;;;20606836;28;20231;-66
2021/08/31 11:14:55;;;;;;;6.40;1.70;;;27.20;99.90;;;;;;20635548;28;20200;-67
2021/08/31 11:24:58;;;;;;;0.57;0.55;;;28.20;99.90;;;;;;20673887;28;21005;-68
2021/08/31 11:35:05;;;;;;;0.43;0.22;;;28.60;99.90;;;;;;20635335;28;20622;-69
2021/08/31 11:45:10;;;;;;;1.02;0.90;;;29.30;99.90;;;;;;20610016;28;20227;-69
2021/08/31 11:55:23;;;;;;;0.57;0.57;;;28.80;99.90;;;;;;20657372;28;20190;-70
2021/08/31 12:05:27;;;;;;;0.60;0.50;;;29.50;99.90;;;;;;20622782;28;20688;-69
2021/08/31 12:15:32;;;;;;;1.08;0.85;;;29.80;99.90;;;;;;20620622;28;20202;-68
2021/08/31 12:25:45;;;;;;;0.95;0.75;;;29.40;99.90;;;;;;20634379;28;20267;-68
2021/08/31 12:36:01;;;;;;;0.93;0.82;;;30.30;99.90;;;;;;20634477;28;20282;-70
2021/08/31 12:46:05;;;;;;;1.02;0.60;;;30.10;99.90;;;;;;20617852;28;20222;-68
2021/08/31 12:56:13;;;;;;;1.33;0.63;;;31.60;99.90;;;;;;20620302;28;20191;-69
2021/08/31 13:06:48;;;;;;;1.42;0.52;;;31.50;99.90;;;;;;20622049;28;20223;-70
2021/08/31 13:16:54;;;;;;;0.57;0.57;;;31.90;99.90;;;;;;20518460;28;20208;-69
2021/08/31 13:26:59;;;;;;;1.20;1.10;;;31.90;99.90;;;;;;20537951;28;20243;-71
2021/08/31 13:37:04;;;;;;;0.50;0.40;;;32.60;99.90;;;;;;20607987;28;20355;-73
2021/08/31 13:47:08;;;;;;;0.60;0.60;;;32.10;99.90;;;;;;20616290;28;20196;-70
2021/08/31 13:57:17;;;;;;;0.80;0.80;;;32.60;99.90;;;;;;20616773;28;20207;-68
2021/08/31 14:07:22;;;;;;;1.85;0.60;;;33.20;99.90;;;;;;20612302;28;20205;-69
2021/08/31 14:17:27;;;;;;;1.00;0.85;;;33.10;99.90;;;;;;20616354;28;20211;-69
2021/08/31 14:27:31;;;;;;;2.67;0.75;;;33.70;99.90;;;;;;20558461;28;20243;-69
2021/08/31 14:37:36;;;;;;;1.50;1.38;;;33.50;99.90;;;;;;20528859;28;20219;-67
2021/08/31 14:47:42;;;;;;;1.50;0.90;;;32.60;99.90;;;;;;20526505;28;20203;-68
2021/08/31 14:57:47;;;;;;;5.13;0.88;;;30.60;99.90;;;;;;20529238;28;20693;-68
2021/08/31 15:07:51;;;;;;;0.95;0.93;;;33.20;99.90;;;;;;20515857;28;20196;-69
2021/08/31 15:17:57;;;;;;;0.98;0.98;;;33.10;99.90;;;;;;20528500;28;20224;-69
2021/08/31 15:28:01;;;;;;;0.80;0.65;;;32.80;99.90;;;;;;20580577;28;20223;-69
2021/08/31 15:38:05;;;;;;;1.77;0.65;;;32.40;99.90;;;;;;20624840;28;20689;-70
2021/08/31 15:48:09;;;;;;;5.35;0.60;;;31.30;99.90;;;;;;20625654;28;20241;-75
2021/08/31 15:58:15;;;;;;;1.15;0.85;;;29.00;99.90;;;;;;20623778;28;20238;-73
2021/08/31 16:08:19;;;;;;;1.92;1.58;;;28.90;99.90;;;;;;20589910;28;20560;-72
2021/08/31 16:18:25;;;;;;;3.60;0.68;;;28.70;99.90;;;;;;20552157;28;20226;-70
2021/08/31 16:28:29;;;;;;;0.40;0.30;;;28.30;99.90;;;;;;20556155;28;21397;-66
2021/08/31 16:38:36;;;;;;;0.95;0.63;;;27.70;99.90;;;;;;20537955;28;20314;-68
2021/08/31 16:48:40;;;;;;;0.40;0.40;;;26.70;99.90;;;;;;20472157;28;20193;-67
2021/08/31 16:58:45;;;;;;;0.88;0.77;;;26.80;99.90;;;;;;20519936;28;20239;-66
2021/08/31 17:08:49;;;;;;;2.93;1.93;;;26.10;99.90;;;;;;20488591;28;20527;-67
2021/08/31 17:18:54;;;;;;;1.20;0.93;;;26.20;99.90;;;;;;20469497;28;20672;-66
2021/08/31 17:28:59;;;;;;;1.45;0.93;;;25.90;99.90;;;;;;20517500;28;20223;-68
2021/08/31 17:39:04;;;;;;;0.85;0.75;;;25.70;99.90;;;;;;20528449;28;20311;-66
2021/08/31 17:49:09;;;;;;;0.65;0.28;;;25.50;99.90;;;;;;20574315;28;20191;-69
2021/08/31 17:59:15;;;;;;;0.68;0.52;;;25.10;99.90;;;;;;20537950;28;20279;-67
2021/08/31 18:09:19;;;;;;;0.93;0.70;;;25.50;99.90;;;;;;20515128;28;20204;-68
2021/08/31 18:19:24;;;;;;;1.23;0.82;;;25.60;99.90;;;;;;20561548;28;20231;-68
2021/08/31 18:29:28;;;;;;;1.50;0.60;;;25.60;99.90;;;;;;20565545;28;20227;-69
2021/08/31 18:39:33;;;;;;;0.50;0.50;;;25.40;99.90;;;;;;20541034;28;20247;-68
2021/08/31 18:49:39;;;;;;;1.80;0.70;;;25.20;99.90;;;;;;20528611;28;20313;-70
2021/08/31 18:59:45;;;;;;;1.48;0.60;;;24.90;99.90;;;;;;20515215;28;20605;-68
2021/08/31 19:09:49;;;;;;;1.02;0.57;;;25.00;99.90;;;;;;20570534;28;20254;-68
2021/08/31 19:19:54;;;;;;;2.05;1.58;;;24.70;99.90;;;;;;20511688;28;20278;-71
2021/08/31 19:29:58;;;;;;;2.17;0.68;;;24.70;99.90;;;;;;20603672;28;20234;-68
2021/08/31 19:40:03;;;;;;;2.08;0.95;;;24.40;99.90;;;;;;20657964;28;20214;-70
2021/08/31 19:50:09;;;;;;;0.20;0.20;;;24.20;99.90;;;;;;20689873;28;20207;-71
2021/08/31 20:00:15;;;;;;;0.50;0.47;;;24.30;99.90;;;;;;20683382;28;20227;-69
2021/08/31 20:10:18;;;;;;;0.45;0.32;;;23.90;99.90;;;;;;20688395;28;20392;-75
2021/08/31 20:20:24;;;;;;;0.70;0.40;;;23.70;99.90;;;;;;20645575;28;20241;-75
2021/08/31 20:30:28;;;;;;;0.82;0.75;;;23.50;99.90;;;;;;20621128;28;20227;-71
2021/08/31 20:40:34;;;;;;;3.67;1.45;;;23.20;99.90;;;;;;20622836;28;20310;-71
2021/08/31 20:50:38;;;;;;;20.05;0.90;;;23.10;99.90;;;;;;20610279;28;20287;-70
2021/08/31 21:00:43;;;;;;;1.20;0.88;;;23.00;99.90;;;;;;20626121;28;20218;-70
2021/08/31 21:10:47;;;;;;;7.40;0.70;;;22.70;99.90;;;;;;20624158;28;20199;-71
2021/08/31 21:20:52;;;;;;;1.47;0.77;;;22.60;99.90;;;;;;20624497;28;20223;-70
2021/08/31 21:30:56;;;;;;;0.60;0.60;;;22.50;99.90;;;;;;20627994;28;20574;-68
2021/08/31 21:41:02;;;;;;;0.60;0.57;;;22.10;99.90;;;;;;20643924;28;20289;-69
2021/08/31 21:51:05;;;;;;;1.90;1.43;;;22.20;99.90;;;;;;20643302;28;20220;-71
2021/08/31 22:01:10;;;;;;;0.97;0.80;;;22.50;99.90;;;;;;20662445;28;20555;-71
2021/08/31 22:11:15;;;;;;;3.30;0.60;;;22.70;99.90;;;;;;20654017;28;20198;-70
2021/08/31 22:21:20;;;;;;;1.38;1.27;;;23.00;99.90;;;;;;20617825;28;20330;-68
2021/08/31 22:31:24;;;;;;;0.50;0.32;;;23.20;99.90;;;;;;20601742;28;20210;-69
2021/08/31 22:41:29;;;;;;;1.75;1.00;;;23.50;99.90;;;;;;20678861;28;20240;-69
2021/08/31 22:51:33;;;;;;;0.57;0.57;;;23.50;99.90;;;;;;20658574;28;20187;-69
2021/08/31 23:01:38;;;;;;;0.55;0.52;;;23.40;99.90;;;;;;20657258;28;20684;-68
2021/08/31 23:11:42;;;;;;;3.53;0.28;;;23.40;99.90;;;;;;20607555;28;20286;-69
2021/08/31 23:21:48;;;;;;;0.93;0.43;;;23.00;99.90;;;;;;20617667;28;20219;-70
2021/08/31 23:31:52;;;;;;;1.53;0.40;;;22.70;99.90;;;;;;20614280;28;20203;-69
2021/08/31 23:42:00;;;;;;;2.93;0.60;;;22.60;99.90;;;;;;20618810;28;20238;-70
2021/08/31 23:52:04;;;;;;;1.58;0.50;;;22.50;99.90;;;;;;20641456;28;20209;-69
